Pagrindinis puslapis
METAR-TAF:

METAR-TAF

Oro uostai :

Leonardo da Vinčio-Fjumičino oro uostas

Roma-Fjumičinas, Italija

platuma: 41-48N, ilguma: 012-14E, Aukštis: 2 m

Dabartinis oras

Ataskaita buvo paskelbta 36 minutes, ne 15:20 UTC
Vėjas 12 kt iš Vakarų
Temperatūra 25°C
Drėgmė 65%
Slėgis 1019 hPa
Matomumas 10 km arba daugiau
nėra debesų žemiau 1500 m ir nėra kamuolinių lietaus debesų

METAR: LIRF 201520Z 26012KT CAVOK 25/18 Q1019 NOSIG

Laikas: 17:56 (15:56 UTC)

Prognozė

Ataskaita buvo paskelbta 4 valandos ir 56 minutes, ne 11:00 UTC
Prognozė galioja nuo 20 metu 12 UTC su 21 metu 18 UTC
Vėjas 10 kt iš Vakarų
Matomumas 10 km arba daugiau
Mažai debesys ne aukštis 3000 ft
Tapsmas
nuo 21 metu 08 UTC su 21 metu 10 UTC
Vėjas 10 kt iš Vakarų/Pietvakarių

TAF: LIRF 201100Z 2012/2118 28010KT 9999 FEW030 BECMG 2108/2110 24010KT

Orai ataskaitas ir orų prognozės (METAR, TAF).

turimą stotys yra geltonos ir raudonos taškus žemėlapyje.

Perkelti pele per norėdami pamatyti stoties vardą.

Tada spustelėkite, norėdami matyti oro stebėjimo ir prognozės.

Norėdami pakeisti žemėlapį: spustelėkite ant žalios mygtukų su juodo kryžiaus žemyn,; žalią mygtuką su brūkšneliu, jei norite nutolinti; arba žalių rodyklių gretimoms žemėlapius.


METAR-TAF: